createdAt,value
2018-08-27T00:02:00.301Z,9.30
2018-08-27T00:04:43.694Z,9.00
2018-08-27T00:07:26.460Z,9.23
2018-08-27T00:10:09.925Z,9.77
2018-08-27T00:12:53.281Z,10.73
2018-08-27T00:15:36.598Z,10.43
2018-08-27T00:18:19.306Z,12.10
2018-08-27T00:21:02.021Z,11.07
2018-08-27T00:23:45.568Z,9.50
2018-08-27T00:26:28.632Z,10.30
2018-08-27T00:29:12.087Z,9.50
2018-08-27T00:31:55.165Z,10.83
2018-08-27T00:34:37.648Z,12.00
2018-08-27T00:37:20.536Z,10.87
2018-08-27T00:40:03.791Z,11.77
2018-08-27T00:42:46.092Z,12.03
2018-08-27T00:45:29.894Z,10.83
2018-08-27T00:48:12.636Z,11.90
2018-08-27T00:50:55.485Z,11.30
2018-08-27T00:53:38.934Z,10.70
2018-08-27T00:56:22.964Z,10.53
2018-08-27T00:59:06.009Z,11.43
2018-08-27T01:01:48.884Z,12.00
2018-08-27T01:04:31.665Z,11.20
2018-08-27T01:07:14.326Z,11.43
2018-08-27T01:09:57.750Z,12.60
2018-08-27T01:12:40.397Z,11.77
2018-08-27T01:15:22.747Z,11.80
2018-08-27T01:18:05.577Z,11.80
2018-08-27T01:20:54.125Z,12.17
2018-08-27T01:23:37.125Z,11.80
2018-08-27T01:26:20.881Z,11.10
2018-08-27T01:29:03.747Z,11.67
2018-08-27T01:31:53.180Z,12.10
2018-08-27T01:34:37.295Z,11.90
2018-08-27T01:37:21.273Z,12.47
2018-08-27T01:40:03.738Z,12.37
2018-08-27T01:42:47.297Z,12.57
2018-08-27T01:45:29.963Z,12.30
2018-08-27T01:48:13.442Z,12.10
2018-08-27T01:50:56.343Z,12.00
2018-08-27T01:53:39.173Z,12.77
2018-08-27T01:56:27.522Z,11.87
2018-08-27T01:59:12.107Z,12.80
2018-08-27T02:02:00.568Z,12.63
2018-08-27T02:04:53.822Z,15.23
2018-08-27T02:07:38.511Z,12.50
2018-08-27T02:10:27.329Z,13.00
2018-08-27T02:13:10.961Z,12.60
2018-08-27T02:16:05.135Z,12.77
2018-08-27T02:18:48.496Z,12.40
2018-08-27T02:21:31.040Z,13.00
2018-08-27T02:24:13.768Z,12.60
2018-08-27T02:26:56.716Z,12.87
2018-08-27T02:29:42.465Z,13.00
2018-08-27T02:32:25.150Z,12.00
2018-08-27T02:35:10.552Z,13.13
2018-08-27T02:37:54.773Z,11.53
2018-08-27T02:40:37.633Z,13.20
2018-08-27T02:43:20.840Z,12.03
2018-08-27T02:46:03.157Z,11.40
2018-08-27T02:48:45.876Z,10.60
2018-08-27T02:51:28.657Z,11.87
2018-08-27T02:54:11.356Z,12.63
2018-08-27T02:56:54.061Z,12.70
2018-08-27T02:59:37.332Z,12.00
2018-08-27T03:02:19.782Z,14.13
2018-08-27T03:05:02.582Z,13.63
2018-08-27T03:07:45.949Z,12.20
2018-08-27T03:10:30.733Z,12.53
2018-08-27T03:13:14.003Z,12.77
2018-08-27T03:15:56.779Z,12.83
2018-08-27T03:18:39.566Z,11.57
2018-08-27T03:21:23.171Z,11.77
2018-08-27T03:24:11.549Z,11.87
2018-08-27T03:26:55.205Z,12.77
2018-08-27T03:29:37.518Z,12.70
2018-08-27T03:32:20.347Z,12.23
2018-08-27T03:35:03.263Z,13.40
2018-08-27T03:37:46.050Z,12.73
2018-08-27T03:40:28.327Z,12.73
2018-08-27T03:43:11.153Z,13.10
2018-08-27T03:45:53.869Z,11.90
2018-08-27T03:48:36.875Z,12.53
2018-08-27T03:51:19.718Z,12.80
2018-08-27T03:54:02.442Z,13.63
2018-08-27T03:56:45.950Z,13.27
2018-08-27T03:59:29.009Z,13.73
2018-08-27T04:02:12.638Z,12.90
2018-08-27T04:05:01.192Z,13.27
2018-08-27T04:07:45.686Z,13.73
2018-08-27T04:10:31.206Z,13.03
2018-08-27T04:13:14.589Z,13.57
2018-08-27T04:15:57.461Z,16.33
2018-08-27T04:18:40.636Z,14.10
2018-08-27T04:21:22.939Z,14.90
2018-08-27T04:24:07.252Z,13.83
2018-08-27T04:26:50.579Z,13.27
2018-08-27T04:29:41.385Z,14.57
2018-08-27T04:32:24.358Z,14.43
2018-08-27T04:35:07.037Z,13.73
2018-08-27T04:37:50.319Z,13.90
2018-08-27T04:40:33.398Z,13.60
2018-08-27T04:43:17.380Z,14.00
2018-08-27T04:46:00.465Z,13.63
2018-08-27T04:48:43.340Z,14.13
2018-08-27T04:51:26.789Z,13.80
2018-08-27T04:54:09.737Z,13.20
2018-08-27T04:56:53.183Z,12.80
2018-08-27T04:59:44.041Z,12.77
2018-08-27T05:02:26.484Z,12.80
2018-08-27T05:05:10.067Z,13.90
2018-08-27T05:07:53.166Z,12.63
2018-08-27T05:10:36.092Z,12.50
2018-08-27T05:13:24.699Z,12.00
2018-08-27T05:16:07.236Z,12.47
2018-08-27T05:18:49.972Z,11.33
2018-08-27T05:21:33.196Z,13.20
2018-08-27T05:24:16.552Z,11.50
2018-08-27T05:26:58.832Z,11.97
2018-08-27T05:29:41.746Z,11.50
2018-08-27T05:32:24.685Z,10.80
2018-08-27T05:35:07.588Z,13.03
2018-08-27T05:37:50.530Z,11.27
2018-08-27T05:40:32.896Z,12.53
2018-08-27T05:43:21.673Z,11.80
2018-08-27T05:46:04.454Z,11.13
2018-08-27T05:48:47.077Z,11.50
2018-08-27T05:51:30.671Z,14.97
2018-08-27T05:54:13.590Z,10.47
2018-08-27T05:56:56.241Z,10.90
2018-08-27T05:59:39.643Z,10.67
2018-08-27T06:02:23.562Z,11.50
2018-08-27T06:05:06.358Z,10.33
2018-08-27T06:07:48.961Z,11.33
2018-08-27T06:10:32.645Z,10.43
2018-08-27T06:13:16.297Z,9.77
2018-08-27T06:15:59.339Z,9.97
2018-08-27T06:18:42.429Z,10.10
2018-08-27T06:21:25.022Z,10.00
2018-08-27T06:24:07.725Z,8.93
2018-08-27T06:26:50.512Z,10.13
2018-08-27T06:29:33.176Z,8.30
2018-08-27T06:32:15.986Z,9.77
2018-08-27T06:34:59.124Z,9.47
2018-08-27T06:37:41.520Z,9.33
2018-08-27T06:40:24.417Z,9.10
2018-08-27T06:43:08.594Z,8.77
2018-08-27T06:45:51.240Z,8.20
2018-08-27T06:48:34.091Z,9.50
2018-08-27T06:51:18.257Z,9.77
2018-08-27T06:54:00.566Z,10.30
2018-08-27T06:56:43.406Z,8.57
2018-08-27T06:59:26.949Z,9.33
2018-08-27T07:02:09.957Z,8.50
2018-08-27T07:04:53.189Z,9.57
2018-08-27T07:07:36.950Z,8.90
2018-08-27T07:10:20.165Z,9.50
2018-08-27T07:13:03.392Z,9.03
2018-08-27T07:15:47.332Z,8.87
2018-08-27T07:18:31.641Z,8.50
2018-08-27T07:21:14.740Z,8.07
2018-08-27T07:23:57.724Z,8.03
2018-08-27T07:26:40.994Z,8.97
2018-08-27T07:29:23.785Z,9.33
2018-08-27T07:32:07.641Z,8.00
2018-08-27T07:34:51.434Z,9.70
2018-08-27T07:37:36.752Z,8.63
2018-08-27T07:40:20.834Z,9.87
2018-08-27T07:43:03.607Z,8.70
2018-08-27T07:45:46.819Z,9.30
2018-08-27T07:48:30.954Z,7.93
2018-08-27T07:51:14.345Z,8.50
